Kelowna Airport
CYLW : now visible

Airfield :











YOU CAN JOIN US ON...

 
LOGIN :

Register | Disclaimer

   EN    FR    IT 

 









Legend :    VFR   Marginal VFR   IFR   Intensive IFR   Very Intensive IFR
Visi :
Ceiling :
>= 8 km
>= 3000ft
5 to 8 km
1000 to 3000 ft
1500m to 5 km
500 to 1000 ft
800 to 1500m
200 to 500 ft
< 800m
< 200 ft
Symbols :   Thunderstorms  Fog  Heavy snow  Heavy precipitations  Wind > 20 kt






- Airport Elevation : 1409 ft
- IATA code : YLW


CYLW - Kelowna

CURRENT METAR :
  • 031500Z AUTO 15007KT 9SM CLR 21/11 A3005 RMK SLP168 DENSITY ALT 2300FT

EXPIRED METARs :
  • 031400Z AUTO 14006KT 9SM FEW190 20/10 A3004 RMK SLP165 DENSITY ALT 2100FT
  • 031300Z AUTO 14005KT 9SM FEW190 19/09 A3003 RMK SLP160 DENSITY ALT 2000FT
  • 031200Z AUTO 14006KT 110V180 9SM FEW110 19/09 A3001 RMK SLP154 DENSITY ALT 2000FT

TAF TAF CYLW
Valid from the 03 at 13:00 until the 04 at 01:00 UTC


031238Z 0313/0401 15006KT P6SM SCT120
TEMPO 0313/0314 P6SM -SHRA BKN100
FM031400 18006KT P6SM SCT080
BECMG 0319/0321 27010KT SCT100 RMK FCST BASED ON AUTO OBS. NXT FCST BY 031900Z
CZVR FIR / North America



MET'MAP, your aeronautical weather chart ! - Copyright ORBIFLY December 2007 - Disclaimer

ORBIFLY MET'MAP TEAM :

Programming & Development : Alexandra Zaïnal
Concept & original design : Baudouin d'Aumeries
Assistance for programming : Marc-Olivier Méhu
Technical & hardware support : Manuel Goepfert

Contact : metmap@orbifly.com




SOURCES & CREDITS :

   NOAA       Earth
Advisory